Time;durP1;ratioP1;P1;durP2;ratioP2;P2;SDS_P1;SDS_P2;PMS_P1;PMS_P2;Temp;Humidity;BMP_temperature;BMP_pressure;BME280_temperature;BME280_humidity;BME280_pressure;Samples;Min_cycle;Max_cycle;Signal;HPM_P1;HPM_P2
2022/10/26 00:00:07;;;;;;;9.13;4.97;;;13.10;99.90;;;;;;5072967;28;20029;-79
2022/10/26 00:02:34;;;;;;;11.20;6.07;;;13.10;99.90;;;;;;5074019;28;20123;-78
2022/10/26 00:05:00;;;;;;;12.30;5.80;;;13.10;99.90;;;;;;5073220;28;20178;-80
2022/10/26 00:07:28;;;;;;;8.27;4.97;;;13.10;99.90;;;;;;5072998;28;20123;-78
2022/10/26 00:09:54;;;;;;;;;;;13.10;99.90;;;;;;5073858;28;20052;-77
2022/10/26 00:12:20;;;;;;;11.73;4.95;;;13.00;99.90;;;;;;5074292;28;19965;-77
2022/10/26 00:14:46;;;;;;;9.00;4.97;;;13.00;99.90;;;;;;5073495;28;20463;-78
2022/10/26 00:17:11;;;;;;;11.80;5.18;;;13.00;99.90;;;;;;5072675;28;20036;-78
2022/10/26 00:19:37;;;;;;;9.70;5.85;;;13.00;99.90;;;;;;5073693;28;20044;-79
2022/10/26 00:22:03;;;;;;;14.40;5.18;;;12.90;99.90;;;;;;5072414;28;20106;-78
2022/10/26 00:24:29;;;;;;;13.50;5.88;;;12.90;99.90;;;;;;5072546;28;20386;-79
2022/10/26 00:26:56;;;;;;;7.25;5.78;;;13.00;99.90;;;;;;5073391;28;20049;-79
2022/10/26 00:29:21;;;;;;;10.15;5.85;;;12.90;99.90;;;;;;5073078;28;20093;-78
2022/10/26 00:31:47;;;;;;;13.07;5.40;;;12.90;99.90;;;;;;5073458;28;20115;-77
2022/10/26 00:34:13;;;;;;;11.55;5.63;;;12.80;99.90;;;;;;5073671;28;20041;-79
2022/10/26 00:36:38;;;;;;;10.75;6.05;;;12.80;99.90;;;;;;5072498;28;20112;-78
2022/10/26 00:39:04;;;;;;;8.32;5.28;;;12.90;99.90;;;;;;5073679;28;20035;-76
2022/10/26 00:41:33;;;;;;;11.52;5.63;;;12.90;99.90;;;;;;5072949;28;20040;-76
2022/10/26 00:43:59;;;;;;;11.10;6.35;;;12.90;99.90;;;;;;5073542;28;20107;-79
2022/10/26 00:46:37;;;;;;;12.55;6.28;;;12.80;99.90;;;;;;5073700;28;20120;-77
2022/10/26 00:49:20;;;;;;;9.90;6.53;;;12.80;99.90;;;;;;5072316;28;20454;-79
2022/10/26 00:51:52;;;;;;;10.88;5.45;;;12.80;99.90;;;;;;5073199;28;20052;-77
2022/10/26 00:54:19;;;;;;;12.98;5.53;;;12.80;99.90;;;;;;5071774;28;20028;-79
2022/10/26 00:56:47;;;;;;;10.10;5.53;;;12.70;99.90;;;;;;5073612;28;20055;-78
2022/10/26 00:59:14;;;;;;;12.77;5.80;;;12.70;99.90;;;;;;5072212;28;20528;-79
2022/10/26 01:01:44;;;;;;;12.68;5.47;;;12.70;99.90;;;;;;5073487;28;20049;-78
2022/10/26 01:04:12;;;;;;;9.27;5.25;;;12.70;99.90;;;;;;5073050;28;20480;-81
2022/10/26 01:06:38;;;;;;;;;;;12.60;99.90;;;;;;5073593;28;20493;-79
2022/10/26 01:09:04;;;;;;;14.63;5.75;;;12.60;99.90;;;;;;5073352;28;19908;-79
2022/10/26 01:11:30;;;;;;;13.95;6.47;;;12.70;99.90;;;;;;5073639;28;20025;-80
2022/10/26 01:13:59;;;;;;;22.77;6.50;;;12.60;99.90;;;;;;5072614;28;20340;-80
2022/10/26 01:16:43;;;;;;;9.60;5.55;;;12.60;99.90;;;;;;5071746;28;20067;-80
2022/10/26 01:19:52;;;;;;;9.70;5.90;;;12.60;99.90;;;;;;5072781;28;20058;-79
2022/10/26 01:22:28;;;;;;;12.32;6.25;;;12.50;99.90;;;;;;5072854;28;20103;-80
2022/10/26 01:25:36;;;;;;;14.95;5.72;;;12.50;99.90;;;;;;5072549;28;20420;-79
2022/10/26 01:28:05;;;;;;;10.05;5.28;;;12.50;99.90;;;;;;5030397;28;20049;-78
2022/10/26 01:30:39;;;;;;;11.70;6.45;;;12.50;99.90;;;;;;5060472;28;20021;-80
2022/10/26 01:33:29;;;;;;;19.42;6.22;;;12.60;99.90;;;;;;5072566;28;20042;-77
2022/10/26 01:36:10;;;;;;;14.98;5.88;;;12.50;99.90;;;;;;5072086;28;20112;-78
2022/10/26 01:38:52;;;;;;;8.35;5.50;;;12.50;99.90;;;;;;5072791;28;20090;-78
2022/10/26 01:41:28;;;;;;;9.80;5.82;;;12.50;99.90;;;;;;5072355;28;20106;-78
2022/10/26 01:43:58;;;;;;;9.18;6.28;;;12.50;99.90;;;;;;5072635;28;20378;-79
2022/10/26 01:46:27;;;;;;;10.68;5.97;;;12.50;99.90;;;;;;5072261;28;20062;-79
2022/10/26 01:48:56;;;;;;;13.13;6.13;;;12.40;99.90;;;;;;5071112;28;20032;-78
2022/10/26 01:51:24;;;;;;;18.98;5.93;;;12.40;99.90;;;;;;5071122;28;20058;-78
2022/10/26 01:53:49;;;;;;;11.88;6.00;;;12.40;99.90;;;;;;5072023;28;20443;-77
2022/10/26 01:56:26;;;;;;;8.85;5.43;;;12.50;99.90;;;;;;5072340;28;20316;-77
2022/10/26 01:59:09;;;;;;;13.18;5.63;;;12.40;99.90;;;;;;5072018;28;20025;-79
2022/10/26 02:01:47;;;;;;;7.22;5.43;;;12.40;99.90;;;;;;5070662;28;20366;-78
2022/10/26 02:04:18;;;;;;;15.32;5.63;;;12.40;99.90;;;;;;5070545;28;20418;-77
2022/10/26 02:07:02;;;;;;;15.43;5.88;;;12.30;99.90;;;;;;5070869;28;20029;-78
2022/10/26 02:09:45;;;;;;;8.60;5.53;;;12.30;99.90;;;;;;5070394;28;20420;-78
2022/10/26 02:12:32;;;;;;;10.90;5.15;;;12.30;99.90;;;;;;5070791;28;20454;-79
2022/10/26 02:15:12;;;;;;;14.48;5.93;;;12.30;99.90;;;;;;5071565;28;20095;-78
2022/10/26 02:17:49;;;;;;;11.40;5.07;;;12.30;99.90;;;;;;5071841;28;20055;-78
2022/10/26 02:20:26;;;;;;;9.75;5.60;;;12.30;99.90;;;;;;5070717;28;20040;-78
2022/10/26 02:22:55;;;;;;;11.38;5.88;;;12.20;99.90;;;;;;5070401;28;20054;-79
2022/10/26 02:25:27;;;;;;;13.15;5.45;;;12.30;99.90;;;;;;5071363;28;20025;-78
2022/10/26 02:27:58;;;;;;;12.40;5.70;;;12.30;99.90;;;;;;5071328;28;20435;-79
2022/10/26 02:30:24;;;;;;;14.05;5.40;;;12.30;99.90;;;;;;5071431;28;20135;-79
2022/10/26 02:32:53;;;;;;;8.65;5.30;;;12.30;99.90;;;;;;5070550;28;20020;-77
2022/10/26 02:35:24;;;;;;;9.50;5.45;;;12.30;99.90;;;;;;5071559;28;20013;-78
2022/10/26 02:37:52;;;;;;;13.13;6.05;;;12.30;99.90;;;;;;5071243;28;20041;-77
2022/10/26 02:40:21;;;;;;;10.30;5.13;;;12.30;99.90;;;;;;5071038;28;20025;-79
2022/10/26 02:42:49;;;;;;;8.73;5.75;;;12.20;99.90;;;;;;5070954;28;20059;-77
2022/10/26 02:45:16;;;;;;;;;;;12.20;99.90;;;;;;5071604;28;20037;-79
2022/10/26 02:47:42;;;;;;;10.45;5.68;;;12.20;99.90;;;;;;5071543;28;19912;-80
2022/10/26 02:50:09;;;;;;;17.20;5.55;;;12.20;99.90;;;;;;5070790;28;20035;-79
2022/10/26 02:52:56;;;;;;;9.98;5.20;;;12.20;99.90;;;;;;5070856;28;20031;-79
2022/10/26 02:55:33;;;;;;;14.95;5.47;;;12.20;99.90;;;;;;5070842;28;20421;-79
2022/10/26 02:58:03;;;;;;;8.55;5.05;;;12.20;99.90;;;;;;5070902;28;20361;-78
2022/10/26 03:00:30;;;;;;;9.65;4.95;;;12.20;99.90;;;;;;5069682;28;20039;-79
2022/10/26 03:02:57;;;;;;;10.43;4.93;;;12.20;99.90;;;;;;5070480;28;20408;-78
2022/10/26 03:05:26;;;;;;;10.38;5.07;;;12.20;99.90;;;;;;5071188;28;20447;-78
2022/10/26 03:07:53;;;;;;;9.38;4.70;;;12.20;99.90;;;;;;5069604;28;20089;-79
2022/10/26 03:10:19;;;;;;;8.40;4.78;;;12.30;99.90;;;;;;5070600;28;20028;-79
2022/10/26 03:12:45;;;;;;;7.80;4.38;;;12.30;99.90;;;;;;5070341;28;20105;-79
2022/10/26 03:15:10;;;;;;;10.75;4.53;;;12.30;99.90;;;;;;5070932;28;20059;-79
2022/10/26 03:17:36;;;;;;;13.05;5.10;;;12.40;99.90;;;;;;5070548;28;20362;-78
2022/10/26 03:20:03;;;;;;;7.90;5.03;;;12.40;99.90;;;;;;5070432;28;20094;-78
2022/10/26 03:22:28;;;;;;;7.03;4.40;;;12.40;99.90;;;;;;5070339;28;20033;-77
2022/10/26 03:24:54;;;;;;;8.88;4.82;;;12.40;99.90;;;;;;5069413;28;20039;-79
2022/10/26 03:27:20;;;;;;;7.03;4.25;;;12.30;99.90;;;;;;5070560;28;20370;-81
2022/10/26 03:29:45;;;;;;;11.43;5.60;;;12.30;99.90;;;;;;5070884;28;20029;-79
2022/10/26 03:32:11;;;;;;;12.95;4.93;;;12.30;99.90;;;;;;5070673;28;20338;-79
2022/10/26 03:34:37;;;;;;;12.65;4.63;;;12.30;99.90;;;;;;5070776;28;20109;-78
2022/10/26 03:37:02;;;;;;;11.70;4.68;;;12.30;99.90;;;;;;5070280;28;20025;-78
2022/10/26 03:39:28;;;;;;;10.90;4.60;;;12.30;99.90;;;;;;5069081;28;20099;-78
2022/10/26 03:41:57;;;;;;;9.23;4.05;;;12.20;99.90;;;;;;5070098;28;20426;-77
2022/10/26 03:44:22;;;;;;;11.57;4.70;;;12.30;99.90;;;;;;5071083;28;20029;-77
2022/10/26 03:46:48;;;;;;;10.35;4.72;;;12.30;99.90;;;;;;5069159;28;20437;-78
2022/10/26 03:49:14;;;;;;;8.32;5.10;;;12.30;99.90;;;;;;5068769;28;20412;-78
2022/10/26 03:51:39;;;;;;;9.77;4.93;;;12.20;99.90;;;;;;5070168;28;20032;-77
2022/10/26 03:54:05;;;;;;;7.35;4.40;;;12.20;99.90;;;;;;5070283;28;20032;-78
2022/10/26 03:56:31;;;;;;;14.98;4.90;;;12.10;99.90;;;;;;5070679;28;20020;-77
2022/10/26 03:58:57;;;;;;;11.65;4.72;;;12.10;99.90;;;;;;5070117;28;20028;-78
2022/10/26 04:01:23;;;;;;;9.70;4.80;;;12.10;99.90;;;;;;5068946;28;20441;-79
2022/10/26 04:03:48;;;;;;;7.63;4.13;;;12.10;99.90;;;;;;5070029;28;20040;-77
2022/10/26 04:06:14;;;;;;;13.75;4.18;;;12.10;99.90;;;;;;5069039;28;20350;-76
2022/10/26 04:08:40;;;;;;;7.50;4.05;;;12.10;99.90;;;;;;5069414;28;20031;-78
2022/10/26 04:11:06;;;;;;;7.25;4.05;;;12.10;99.90;;;;;;5070017;28;20115;-78
2022/10/26 04:13:31;;;;;;;8.68;4.55;;;12.10;99.90;;;;;;5069788;28;20049;-78
2022/10/26 04:15:57;;;;;;;7.20;4.05;;;12.10;99.90;;;;;;5069814;28;20037;-78
2022/10/26 04:18:23;;;;;;;12.05;4.30;;;12.20;99.90;;;;;;5070073;28;20029;-76
2022/10/26 04:20:49;;;;;;;10.38;5.00;;;12.10;99.90;;;;;;5070078;28;20021;-77
2022/10/26 04:23:16;;;;;;;11.63;4.50;;;12.00;99.90;;;;;;5070366;28;20013;-78
2022/10/26 04:25:42;;;;;;;6.45;4.18;;;12.00;99.90;;;;;;5070243;28;20043;-79
2022/10/26 04:28:10;;;;;;;9.05;4.50;;;11.90;99.90;;;;;;5068534;28;20032;-78
2022/10/26 04:30:36;;;;;;;10.38;4.85;;;12.00;99.90;;;;;;5071026;28;20119;-80
2022/10/26 04:33:03;;;;;;;5.05;3.70;;;12.00;99.90;;;;;;5073218;28;20035;-78
2022/10/26 04:35:29;;;;;;;11.82;4.00;;;11.90;99.90;;;;;;5073601;28;20021;-78
2022/10/26 04:37:58;;;;;;;7.70;3.65;;;12.00;99.90;;;;;;5072967;28;20043;-79
2022/10/26 04:40:27;;;;;;;6.30;3.85;;;12.00;99.90;;;;;;5073385;28;20036;-79
2022/10/26 04:42:53;;;;;;;5.53;3.17;;;11.90;99.90;;;;;;5072848;28;20143;-78
2022/10/26 04:45:18;;;;;;;14.38;5.25;;;12.00;99.90;;;;;;5073244;28;20530;-79
2022/10/26 04:47:44;;;;;;;6.43;3.70;;;12.00;99.90;;;;;;5073933;28;20046;-79
2022/10/26 04:50:11;;;;;;;8.88;3.80;;;12.00;99.90;;;;;;5073583;28;20029;-79
2022/10/26 04:52:38;;;;;;;6.43;3.53;;;12.00;99.90;;;;;;5073414;28;20028;-79
2022/10/26 04:55:05;;;;;;;11.60;4.35;;;12.00;99.90;;;;;;5073512;28;20125;-78
2022/10/26 04:57:34;;;;;;;12.60;3.38;;;12.00;99.90;;;;;;5072636;28;20028;-79
2022/10/26 05:00:01;;;;;;;16.25;4.25;;;11.90;99.90;;;;;;5072891;28;20066;-78
2022/10/26 05:02:27;;;;;;;9.57;4.33;;;11.90;99.90;;;;;;5072235;28;20695;-79
2022/10/26 05:04:53;;;;;;;18.38;3.63;;;11.90;99.90;;;;;;5073061;28;20730;-77
2022/10/26 05:07:19;;;;;;;8.10;3.75;;;11.90;99.90;;;;;;5072021;28;20350;-77
2022/10/26 05:09:45;;;;;;;6.13;3.13;;;11.80;99.90;;;;;;5072728;28;20033;-78
2022/10/26 05:12:11;;;;;;;7.00;3.53;;;11.80;99.90;;;;;;5073329;28;20032;-76
2022/10/26 05:14:37;;;;;;;11.98;4.25;;;11.80;99.90;;;;;;5072175;28;20053;-77
2022/10/26 05:17:02;;;;;;;5.88;3.60;;;11.90;99.90;;;;;;5072637;28;20037;-78
2022/10/26 05:19:28;;;;;;;9.77;3.28;;;11.90;99.90;;;;;;5071166;28;20108;-80
2022/10/26 05:21:54;;;;;;;10.15;3.90;;;11.90;99.90;;;;;;5071709;28;20412;-78
2022/10/26 05:24:20;;;;;;;7.55;3.90;;;11.90;99.90;;;;;;5071159;28;20395;-78
2022/10/26 05:26:45;;;;;;;8.43;3.40;;;11.80;99.90;;;;;;5072722;28;20020;-78
2022/10/26 05:29:11;;;;;;;8.00;4.38;;;11.80;99.90;;;;;;5072946;28;20386;-78
2022/10/26 05:31:37;;;;;;;10.27;3.85;;;11.80;99.90;;;;;;5072017;28;20119;-77
2022/10/26 05:34:02;;;;;;;14.32;3.70;;;11.70;99.90;;;;;;5072620;28;20078;-78
2022/10/26 05:36:28;;;;;;;7.28;3.85;;;11.80;99.90;;;;;;5072627;28;20040;-78
2022/10/26 05:38:57;;;;;;;12.25;4.20;;;11.80;99.90;;;;;;5072310;28;20490;-77
2022/10/26 05:41:23;;;;;;;14.35;3.72;;;11.80;99.90;;;;;;5072630;28;20016;-77
2022/10/26 05:43:49;;;;;;;9.32;3.72;;;11.70;99.90;;;;;;5072067;28;20039;-77
2022/10/26 05:46:15;;;;;;;6.18;3.40;;;11.80;99.90;;;;;;5071767;28;20041;-78
2022/10/26 05:48:41;;;;;;;8.13;3.60;;;11.80;99.90;;;;;;5072148;28;20044;-77
2022/10/26 05:51:06;;;;;;;6.97;3.45;;;11.70;99.90;;;;;;5071232;28;20032;-78
2022/10/26 05:53:32;;;;;;;7.55;3.92;;;11.80;99.90;;;;;;5071770;28;20450;-77
2022/10/26 05:55:58;;;;;;;13.48;3.70;;;11.80;99.90;;;;;;5072174;28;20094;-77
2022/10/26 05:58:24;;;;;;;9.70;3.83;;;11.80;99.90;;;;;;5072060;28;20029;-76
2022/10/26 06:01:06;;;;;;;9.93;3.80;;;11.80;99.90;;;;;;5072316;28;20104;-77
2022/10/26 06:03:50;;;;;;;8.50;4.05;;;11.90;99.90;;;;;;5072213;28;20039;-76
2022/10/26 06:06:16;;;;;;;7.85;3.70;;;11.80;99.90;;;;;;5071893;28;20017;-80
2022/10/26 06:08:42;;;;;;;10.15;3.47;;;11.80;99.90;;;;;;5071141;28;20038;-80
2022/10/26 06:11:08;;;;;;;13.65;3.55;;;11.80;99.90;;;;;;5072063;28;20068;-79
2022/10/26 06:13:34;;;;;;;5.25;3.17;;;11.80;99.90;;;;;;5070895;28;20051;-80
2022/10/26 06:16:34;;;;;;;9.68;3.50;;;11.80;99.90;;;;;;5070602;28;20032;-81
2022/10/26 06:19:21;;;;;;;12.98;5.28;;;11.80;99.90;;;;;;5071656;28;20033;-80
2022/10/26 06:22:10;;;;;;;17.03;7.73;;;11.80;99.90;;;;;;5071429;28;20056;-79
2022/10/26 06:24:41;;;;;;;10.15;4.63;;;11.80;99.90;;;;;;5070113;28;20105;-78
2022/10/26 06:27:16;;;;;;;7.38;3.70;;;11.80;99.90;;;;;;5071077;28;20036;-80
2022/10/26 06:29:53;;;;;;;7.25;4.35;;;11.80;99.90;;;;;;5071840;28;20028;-79
2022/10/26 06:32:21;;;;;;;19.10;10.80;;;11.90;99.90;;;;;;5071353;28;20086;-80
2022/10/26 06:34:49;;;;;;;14.77;7.15;;;11.80;99.90;;;;;;5071144;28;20457;-80
2022/10/26 06:37:16;;;;;;;9.95;4.38;;;11.90;99.90;;;;;;5070303;28;20044;-80
2022/10/26 06:39:46;;;;;;;10.48;3.80;;;11.90;99.90;;;;;;5071002;28;20477;-79
2022/10/26 06:42:12;;;;;;;8.85;3.50;;;11.90;99.90;;;;;;5070448;28;20032;-79
2022/10/26 06:44:38;;;;;;;7.10;3.60;;;11.90;99.90;;;;;;5071252;28;20459;-76
2022/10/26 06:47:37;;;;;;;10.05;3.38;;;12.00;99.90;;;;;;5069792;28;20040;-78
2022/10/26 06:50:26;;;;;;;7.63;3.55;;;11.90;99.90;;;;;;5057144;28;20033;-78
2022/10/26 06:53:05;;;;;;;7.80;3.65;;;12.00;99.90;;;;;;5069399;28;20413;-78
2022/10/26 06:55:40;;;;;;;6.38;3.97;;;12.00;99.90;;;;;;5070818;28;20482;-78
2022/10/26 06:58:14;;;;;;;12.85;4.28;;;12.00;99.90;;;;;;5070821;28;20120;-77
2022/10/26 07:00:41;;;;;;;8.85;4.15;;;12.00;99.90;;;;;;5071066;28;20029;-78
2022/10/26 07:03:07;;;;;;;8.82;4.32;;;12.10;99.90;;;;;;5071173;28;20035;-80
2022/10/26 07:05:32;;;;;;;19.10;8.50;;;12.20;99.90;;;;;;5069993;28;20028;-79
2022/10/26 07:07:58;;;;;;;8.13;5.00;;;12.20;99.90;;;;;;5070656;28;20029;-79
2022/10/26 07:10:24;;;;;;;15.60;5.07;;;12.30;99.90;;;;;;5070779;28;20262;-78
2022/10/26 07:12:49;;;;;;;9.30;3.60;;;12.30;99.90;;;;;;5069417;28;20041;-79
2022/10/26 07:15:15;;;;;;;6.40;3.67;;;12.40;99.90;;;;;;5070488;28;20024;-79
2022/10/26 07:17:43;;;;;;;16.90;3.95;;;12.40;99.90;;;;;;5071382;28;20035;-80
2022/10/26 07:20:09;;;;;;;6.40;3.28;;;12.40;99.90;;;;;;5070912;28;20039;-78
2022/10/26 07:22:36;;;;;;;8.73;3.58;;;12.50;99.90;;;;;;5070365;28;20025;-79
2022/10/26 07:25:02;;;;;;;6.90;2.92;;;12.60;99.90;;;;;;5070795;28;20055;-79
2022/10/26 07:27:28;;;;;;;6.57;3.00;;;12.70;99.90;;;;;;5069606;28;20071;-78
2022/10/26 07:29:54;;;;;;;9.35;3.17;;;12.70;99.90;;;;;;5070566;28;20048;-77
2022/10/26 07:32:19;;;;;;;8.40;3.15;;;12.80;99.90;;;;;;5070587;28;20021;-79
2022/10/26 07:34:45;;;;;;;10.57;3.67;;;12.80;99.90;;;;;;5069285;28;20382;-81
2022/10/26 07:37:11;;;;;;;21.38;7.75;;;12.80;99.90;;;;;;5069458;28;20028;-78
2022/10/26 07:39:36;;;;;;;10.98;5.43;;;12.80;99.90;;;;;;5070531;28;20033;-79
2022/10/26 07:42:02;;;;;;;9.15;4.63;;;12.90;99.90;;;;;;5070751;28;20027;-78
2022/10/26 07:44:28;;;;;;;6.53;3.38;;;13.00;99.90;;;;;;5071129;28;20077;-79
2022/10/26 07:46:55;;;;;;;12.35;3.22;;;13.00;99.90;;;;;;5070468;28;20033;-79
2022/10/26 07:49:20;;;;;;;9.65;2.95;;;13.00;99.90;;;;;;5069244;28;20033;-79
2022/10/26 07:51:46;;;;;;;11.40;3.50;;;13.10;99.90;;;;;;5070538;28;20275;-80
2022/10/26 07:54:12;;;;;;;11.70;3.53;;;13.10;99.90;;;;;;5070286;28;20056;-79
2022/10/26 07:56:37;;;;;;;10.50;2.42;;;13.20;99.90;;;;;;5070358;28;20133;-82
2022/10/26 07:59:03;;;;;;;6.70;2.75;;;13.20;99.90;;;;;;5070777;28;20047;-79
2022/10/26 08:01:29;;;;;;;6.03;3.15;;;13.20;99.90;;;;;;5069730;28;20070;-82
2022/10/26 08:03:55;;;;;;;10.10;3.17;;;13.30;99.90;;;;;;5070016;28;20028;-80
2022/10/26 08:06:21;;;;;;;16.88;2.95;;;13.30;99.90;;;;;;5072364;28;20033;-82
2022/10/26 08:08:48;;;;;;;7.65;2.28;;;13.40;99.90;;;;;;5073282;28;20024;-82
2022/10/26 08:11:15;;;;;;;6.00;2.63;;;13.40;99.90;;;;;;5074366;28;20051;-79
2022/10/26 08:13:41;;;;;;;5.47;2.50;;;13.50;99.90;;;;;;5073988;28;20513;-80
2022/10/26 08:16:07;;;;;;;5.70;2.78;;;13.50;99.90;;;;;;5074130;28;20037;-79
2022/10/26 08:18:33;;;;;;;10.13;3.53;;;13.50;99.90;;;;;;5073986;28;20066;-81
2022/10/26 08:21:16;;;;;;;5.88;2.70;;;13.50;99.90;;;;;;5073763;28;20100;-79
2022/10/26 08:23:42;;;;;;;8.25;3.03;;;13.60;99.90;;;;;;5073239;28;20028;-79
2022/10/26 08:26:11;;;;;;;6.80;3.08;;;13.70;99.90;;;;;;5074095;28;20028;-79
2022/10/26 08:28:38;;;;;;;5.70;2.35;;;13.70;99.90;;;;;;5073430;28;20039;-78
2022/10/26 08:31:05;;;;;;;8.90;2.85;;;13.70;99.90;;;;;;5073528;28;20029;-80
2022/10/26 08:33:31;;;;;;;4.85;2.22;;;13.70;99.90;;;;;;5072201;28;20055;-78
2022/10/26 08:35:58;;;;;;;9.07;3.03;;;13.80;99.90;;;;;;5072160;28;20439;-76
2022/10/26 08:38:24;;;;;;;9.10;2.63;;;13.80;99.90;;;;;;5072612;28;20127;-79
2022/10/26 08:40:51;;;;;;;8.02;2.67;;;13.90;99.90;;;;;;5073133;28;20060;-79
2022/10/26 08:43:49;;;;;;;10.43;2.53;;;13.90;99.90;;;;;;5072152;28;20047;-79
2022/10/26 08:46:22;;;;;;;9.20;3.38;;;13.90;99.90;;;;;;5072180;28;20032;-82
2022/10/26 08:48:55;;;;;;;6.30;2.72;;;13.90;99.90;;;;;;5073356;28;20124;-83
2022/10/26 08:51:25;;;;;;;7.88;3.08;;;14.00;99.90;;;;;;5072230;28;20412;-80
2022/10/26 08:54:02;;;;;;;6.05;2.67;;;14.00;99.90;;;;;;5073256;28;20029;-79
2022/10/26 08:56:38;;;;;;;16.02;2.97;;;14.00;99.90;;;;;;5072675;28;20037;-80
2022/10/26 08:59:34;;;;;;;5.03;2.40;;;14.10;99.90;;;;;;5073343;28;20020;-79
2022/10/26 09:02:01;;;;;;;8.15;3.08;;;14.20;99.90;;;;;;5069241;28;20031;-78
2022/10/26 09:04:30;;;;;;;14.85;2.90;;;14.20;99.90;;;;;;5072056;28;20048;-77
2022/10/26 09:07:01;;;;;;;7.80;3.00;;;14.30;99.90;;;;;;5072326;28;20039;-77
2022/10/26 09:09:51;;;;;;;7.35;2.90;;;14.40;99.90;;;;;;5073192;28;20036;-78
2022/10/26 09:12:40;;;;;;;5.05;2.17;;;14.50;99.90;;;;;;5072474;28;20024;-80
2022/10/26 09:15:46;;;;;;;5.68;2.60;;;14.70;99.90;;;;;;5072615;28;20040;-79
2022/10/26 09:18:23;;;;;;;7.25;3.00;;;14.80;99.90;;;;;;5073025;28;20112;-79
2022/10/26 09:21:16;;;;;;;9.07;2.97;;;15.00;99.90;;;;;;5071548;28;20097;-77
2022/10/26 09:23:55;;;;;;;8.65;3.20;;;15.30;99.90;;;;;;5072321;28;20441;-77
2022/10/26 09:26:45;;;;;;;8.32;2.60;;;15.40;99.90;;;;;;5072718;28;20032;-81
2022/10/26 09:29:13;;;;;;;7.13;3.05;;;15.50;99.90;;;;;;5071673;28;20336;-80
2022/10/26 09:31:42;;;;;;;7.07;1.98;;;15.70;99.90;;;;;;5072791;28;20354;-78
2022/10/26 09:34:17;;;;;;;6.40;2.42;;;16.40;99.90;;;;;;5071713;28;20623;-80
2022/10/26 09:36:43;;;;;;;10.35;2.42;;;17.10;99.90;;;;;;5072909;28;20032;-79
2022/10/26 09:39:20;;;;;;;11.15;3.45;;;17.60;99.90;;;;;;5072602;28;26195;-80
2022/10/26 09:41:54;;;;;;;4.50;2.58;;;17.90;99.90;;;;;;5072798;28;20035;-80
2022/10/26 09:44:26;;;;;;;4.10;1.80;;;18.50;99.90;;;;;;5071657;28;20123;-80
2022/10/26 09:47:00;;;;;;;9.10;1.92;;;19.50;99.90;;;;;;5072049;28;20072;-79
2022/10/26 09:49:52;;;;;;;6.25;1.88;;;19.80;99.40;;;;;;5071062;28;20044;-78
2022/10/26 09:52:18;;;;;;;5.90;1.65;;;19.70;98.50;;;;;;5071102;28;20040;-81
2022/10/26 09:54:44;;;;;;;6.22;1.77;;;19.40;98.20;;;;;;5071121;28;20044;-80
2022/10/26 09:57:14;;;;;;;5.07;1.50;;;19.20;98.40;;;;;;5071015;28;20055;-81
2022/10/26 09:59:41;;;;;;;9.32;1.58;;;19.10;98.40;;;;;;5072729;28;20020;-82
2022/10/26 10:02:32;;;;;;;8.00;1.63;;;19.00;99.10;;;;;;5071051;28;20032;-79
2022/10/26 10:04:58;;;;;;;5.03;1.80;;;18.80;98.10;;;;;;5071890;28;20404;-82
2022/10/26 10:07:24;;;;;;;8.32;1.98;;;18.60;98.30;;;;;;5070914;28;20347;-78
2022/10/26 10:10:17;;;;;;;5.35;1.50;;;18.60;98.90;;;;;;5070686;28;20044;-82
2022/10/26 10:12:44;;;;;;;7.20;1.70;;;18.60;98.70;;;;;;5070782;28;20060;-80
2022/10/26 10:15:21;;;;;;;4.40;1.30;;;18.70;98.80;;;;;;5070581;28;20078;-81
2022/10/26 10:17:52;;;;;;;4.57;1.13;;;18.60;98.50;;;;;;5071528;28;20403;-82
2022/10/26 10:20:32;;;;;;;4.65;1.75;;;18.50;98.80;;;;;;5070864;28;20142;-84
2022/10/26 10:23:00;;;;;;;4.55;1.45;;;18.50;98.80;;;;;;5071947;28;20059;-78
2022/10/26 10:25:39;;;;;;;3.50;1.38;;;18.40;99.00;;;;;;5070706;28;20085;-80
2022/10/26 10:28:25;;;;;;;5.03;1.50;;;18.20;98.80;;;;;;5070850;28;20040;-79
2022/10/26 10:30:58;;;;;;;4.10;1.30;;;18.10;98.90;;;;;;5070392;28;20241;-79
2022/10/26 10:33:36;;;;;;;5.88;1.42;;;18.10;99.30;;;;;;5071588;28;20474;-80
2022/10/26 10:36:04;;;;;;;5.55;1.73;;;18.10;99.30;;;;;;5070613;28;20462;-78
2022/10/26 10:38:40;;;;;;;6.47;1.83;;;18.10;99.50;;;;;;5071955;28;20485;-79
2022/10/26 10:41:29;;;;;;;9.40;1.55;;;17.90;99.40;;;;;;5071615;28;20050;-79
2022/10/26 10:44:12;;;;;;;6.00;1.60;;;17.90;99.80;;;;;;5071450;28;20114;-78
2022/10/26 10:46:38;;;;;;;4.95;1.60;;;17.90;99.50;;;;;;5071329;28;20144;-80
2022/10/26 10:49:16;;;;;;;7.95;2.00;;;17.90;99.50;;;;;;5071386;28;20125;-78
2022/10/26 10:51:43;;;;;;;9.52;2.08;;;17.90;99.60;;;;;;5071208;28;20041;-80
2022/10/26 10:54:38;;;;;;;5.45;1.50;;;17.90;99.30;;;;;;5071004;28;20043;-81
2022/10/26 10:57:49;;;;;;;9.40;1.42;;;18.00;99.70;;;;;;5063306;28;20029;-82
2022/10/26 11:00:16;;;;;;;4.60;2.35;;;18.00;99.40;;;;;;5073496;28;20161;-81
2022/10/26 11:02:58;;;;;;;4.50;1.60;;;18.00;99.60;;;;;;5073308;28;20059;-83
2022/10/26 11:05:42;;;;;;;4.90;1.70;;;18.00;99.60;;;;;;5072955;28;20040;-80
2022/10/26 11:08:11;;;;;;;4.53;1.58;;;18.00;99.70;;;;;;5070228;28;20040;-78
2022/10/26 11:10:41;;;;;;;9.57;1.65;;;18.00;99.80;;;;;;5069999;28;20384;-78
2022/10/26 11:13:25;;;;;;;7.68;2.00;;;17.90;99.80;;;;;;5070483;28;20053;-80
2022/10/26 11:15:59;;;;;;;5.30;1.67;;;17.90;99.80;;;;;;5069936;28;20370;-78
2022/10/26 11:18:44;;;;;;;4.00;1.73;;;17.80;99.90;;;;;;5071194;28;20103;-80
2022/10/26 11:21:24;;;;;;;3.83;1.38;;;17.90;99.90;;;;;;5071253;28;20036;-80
2022/10/26 11:24:09;;;;;;;2.38;1.20;;;17.90;99.90;;;;;;5071550;28;20021;-84
2022/10/26 11:26:56;;;;;;;5.30;1.38;;;17.90;99.80;;;;;;5072817;28;20021;-81
2022/10/26 11:29:50;;;;;;;6.53;1.63;;;17.90;99.90;;;;;;5071963;28;20051;-86
2022/10/26 11:32:44;;;;;;;2.70;1.17;;;17.90;99.90;;;;;;5069715;28;20033;-80
2022/10/26 11:35:31;;;;;;;4.93;1.35;;;18.00;99.90;;;;;;5071302;28;20135;-80
2022/10/26 11:38:16;;;;;;;2.55;1.10;;;18.20;99.70;;;;;;5069699;28;20025;-80
2022/10/26 11:41:13;;;;;;;6.00;1.33;;;18.40;99.60;;;;;;5073767;28;20374;-79
2022/10/26 11:43:51;;;;;;;13.80;1.60;;;18.60;99.20;;;;;;5075377;28;20098;-79
2022/10/26 11:46:20;;;;;;;2.13;1.20;;;18.70;99.00;;;;;;5075237;28;20050;-80
2022/10/26 11:49:01;;;;;;;6.00;1.30;;;18.70;98.60;;;;;;5074483;28;20048;-78
2022/10/26 11:51:38;;;;;;;4.72;1.30;;;18.90;99.10;;;;;;5074610;28;20029;-79
2022/10/26 11:54:34;;;;;;;6.82;1.30;;;19.00;98.80;;;;;;5075142;28;20028;-81
2022/10/26 11:57:02;;;;;;;4.70;1.13;;;19.10;98.40;;;;;;5069916;28;20369;-81
2022/10/26 11:59:31;;;;;;;8.82;1.63;;;19.20;98.40;;;;;;5078191;28;20254;-80
2022/10/26 12:02:15;;;;;;;7.43;1.85;;;19.30;98.40;;;;;;5074820;28;20050;-80
2022/10/26 12:04:44;;;;;;;3.38;1.35;;;19.30;98.40;;;;;;5074146;28;20108;-79
2022/10/26 12:07:19;;;;;;;7.38;1.10;;;19.30;98.20;;;;;;5074178;28;20025;-82
2022/10/26 12:09:44;;;;;;;3.75;1.00;;;19.40;98.10;;;;;;5074109;28;20127;-83
2022/10/26 12:12:19;;;;;;;2.42;1.05;;;19.40;98.10;;;;;;5074034;28;20124;-84
2022/10/26 12:15:08;;;;;;;4.70;1.10;;;19.40;98.00;;;;;;5079904;28;20049;-86
2022/10/26 12:17:49;;;;;;;4.47;0.85;;;19.30;97.70;;;;;;5081689;28;20040;-83
2022/10/26 12:20:15;;;;;;;5.82;1.05;;;19.30;98.20;;;;;;5080126;28;20116;-83
2022/10/26 12:22:42;;;;;;;2.90;0.85;;;19.30;97.80;;;;;;5090164;28;20043;-83
2022/10/26 12:25:14;;;;;;;6.80;1.10;;;19.20;98.00;;;;;;5085375;28;20150;-82
2022/10/26 12:27:39;;;;;;;3.20;1.35;;;19.30;98.30;;;;;;5084918;28;20035;-81
2022/10/26 12:30:17;;;;;;;5.07;1.08;;;19.40;98.30;;;;;;5084507;28;20025;-80
2022/10/26 12:32:42;;;;;;;4.57;1.10;;;19.40;98.30;;;;;;5084693;28;20024;-82
2022/10/26 12:35:44;;;;;;;7.97;1.13;;;19.40;98.30;;;;;;5076670;28;20510;-81
2022/10/26 12:38:26;;;;;;;6.25;1.05;;;19.50;98.50;;;;;;5063029;28;20028;-82
2022/10/26 12:41:08;;;;;;;3.33;1.00;;;19.50;98.30;;;;;;5075357;28;20517;-82
2022/10/26 12:43:37;;;;;;;4.05;1.40;;;19.50;98.50;;;;;;5085244;28;20047;-80
2022/10/26 12:46:12;;;;;;;2.90;1.33;;;19.50;98.10;;;;;;5078804;28;20060;-83
2022/10/26 12:48:42;;;;;;;5.65;1.15;;;19.50;98.50;;;;;;5080094;28;20045;-82
2022/10/26 12:51:31;;;;;;;3.58;1.00;;;19.50;98.60;;;;;;5077555;28;20024;-82
2022/10/26 12:53:56;;;;;;;20.63;11.73;;;19.50;98.30;;;;;;5066611;28;20068;-83
2022/10/26 12:56:35;;;;;;;8.50;4.85;;;19.50;98.60;;;;;;5077954;28;20078;-83
2022/10/26 12:59:27;;;;;;;4.43;1.20;;;19.60;98.50;;;;;;5076735;28;20054;-86
2022/10/26 13:02:09;;;;;;;5.93;0.90;;;19.50;98.20;;;;;;5080398;28;20024;-85
2022/10/26 13:05:01;;;;;;;4.05;0.93;;;19.40;98.30;;;;;;5080202;28;20033;-83
2022/10/26 13:07:35;;;;;;;7.40;1.70;;;19.40;98.50;;;;;;5075483;28;20021;-84